Time;durP1;ratioP1;P1;durP2;ratioP2;P2;SDS_P1;SDS_P2;PMS_P1;PMS_P2;Temp;Humidity;BMP_temperature;BMP_pressure;BME280_temperature;BME280_humidity;BME280_pressure;Samples;Min_cycle;Max_cycle;Signal;HPM_P1;HPM_P2
2023/10/26 00:00:38;;;;;;;14.23;6.87;;;9.70;99.90;;;;;;5045402;28;20045;-71
2023/10/26 00:03:04;;;;;;;16.37;6.87;;;9.70;99.90;;;;;;5046966;28;20391;-71
2023/10/26 00:05:30;;;;;;;12.98;7.15;;;9.60;99.90;;;;;;5034366;28;20687;-71
2023/10/26 00:07:55;;;;;;;13.90;7.33;;;9.50;99.90;;;;;;5043796;28;20057;-71
2023/10/26 00:10:21;;;;;;;11.80;6.90;;;9.50;99.90;;;;;;5042871;28;20041;-71
2023/10/26 00:12:50;;;;;;;14.40;8.03;;;9.50;99.90;;;;;;5041499;28;20036;-71
2023/10/26 00:15:15;;;;;;;11.32;7.15;;;9.50;99.90;;;;;;5040438;28;20132;-71
2023/10/26 00:17:45;;;;;;;12.83;7.53;;;9.50;99.90;;;;;;5050758;28;20192;-71
2023/10/26 00:20:11;;;;;;;13.98;7.95;;;9.40;99.90;;;;;;5046560;28;20255;-71
2023/10/26 00:22:40;;;;;;;12.27;7.65;;;9.40;99.90;;;;;;5048942;28;20701;-71
2023/10/26 00:25:06;;;;;;;14.15;7.15;;;9.40;99.90;;;;;;5056640;28;20124;-71
2023/10/26 00:27:32;;;;;;;14.85;8.25;;;9.50;99.90;;;;;;5050255;28;20562;-71
2023/10/26 00:30:00;;;;;;;14.73;8.40;;;9.40;99.90;;;;;;5046652;28;20048;-71
2023/10/26 00:32:28;;;;;;;14.10;7.68;;;9.40;99.90;;;;;;5043159;28;20354;-71
2023/10/26 00:34:54;;;;;;;14.38;7.70;;;9.40;99.90;;;;;;5054818;28;20048;-72
2023/10/26 00:37:19;;;;;;;14.87;7.57;;;9.40;99.90;;;;;;5047279;28;20348;-71
2023/10/26 00:39:45;;;;;;;11.93;7.00;;;9.40;99.90;;;;;;5053870;28;20033;-74
2023/10/26 00:42:11;;;;;;;15.83;6.97;;;9.30;99.90;;;;;;5044838;28;20040;-71
2023/10/26 00:44:37;;;;;;;14.90;8.52;;;9.30;99.90;;;;;;5050636;28;20036;-71
2023/10/26 00:47:03;;;;;;;13.53;7.23;;;9.20;99.90;;;;;;5029517;28;20493;-71
2023/10/26 00:49:29;;;;;;;13.93;7.85;;;9.20;99.90;;;;;;5057199;28;20044;-71
2023/10/26 00:51:58;;;;;;;14.15;7.88;;;9.20;99.90;;;;;;5051895;28;20098;-71
2023/10/26 00:54:25;;;;;;;14.02;8.05;;;9.20;99.90;;;;;;5048411;28;20084;-71
2023/10/26 00:56:52;;;;;;;14.70;7.57;;;9.20;99.90;;;;;;5060257;28;20071;-71
2023/10/26 00:59:20;;;;;;;15.23;8.10;;;9.20;99.90;;;;;;5047878;28;20137;-71
2023/10/26 01:01:49;;;;;;;14.18;7.90;;;9.30;99.90;;;;;;5044734;28;20152;-71
2023/10/26 01:04:18;;;;;;;15.27;8.93;;;9.20;99.90;;;;;;5034725;28;20057;-71
2023/10/26 01:06:46;;;;;;;18.77;8.15;;;9.20;99.90;;;;;;5047614;28;20045;-71
2023/10/26 01:09:21;;;;;;;14.10;7.50;;;9.20;99.90;;;;;;5053707;28;20047;-71
2023/10/26 01:11:46;;;;;;;16.90;7.82;;;9.20;99.90;;;;;;5050599;28;20408;-71
2023/10/26 01:14:13;;;;;;;13.93;8.30;;;9.20;99.90;;;;;;5055455;28;20120;-71
2023/10/26 01:16:39;;;;;;;;;;;9.20;99.90;;;;;;5051778;28;20652;-71
2023/10/26 01:19:09;;;;;;;14.13;8.40;;;9.20;99.90;;;;;;5053033;28;20349;-71
2023/10/26 01:22:07;;;;;;;14.70;8.05;;;9.30;99.90;;;;;;5049920;28;20045;-71
2023/10/26 01:24:33;;;;;;;;;;;9.30;99.90;;;;;;5048078;28;20166;-71
2023/10/26 01:26:58;;;;;;;11.90;7.55;;;9.30;99.90;;;;;;5050366;28;19981;-71
2023/10/26 01:29:24;;;;;;;17.93;8.63;;;9.30;99.90;;;;;;5047088;28;20041;-72
2023/10/26 01:31:52;;;;;;;17.40;9.87;;;9.30;99.90;;;;;;5048444;28;20355;-71
2023/10/26 01:34:20;;;;;;;17.30;9.35;;;9.30;99.90;;;;;;5048691;28;20045;-71
2023/10/26 01:36:46;;;;;;;19.20;9.33;;;9.30;99.90;;;;;;5049901;28;20488;-71
2023/10/26 01:39:14;;;;;;;19.30;9.80;;;9.30;99.90;;;;;;5048682;28;20059;-71
2023/10/26 01:41:42;;;;;;;19.42;9.77;;;9.30;99.90;;;;;;5054548;28;20040;-70
2023/10/26 01:44:08;;;;;;;20.90;8.73;;;9.40;99.90;;;;;;5047636;28;20045;-71
2023/10/26 01:46:37;;;;;;;18.60;8.60;;;9.40;99.90;;;;;;5049384;28;20141;-70
2023/10/26 01:49:03;;;;;;;17.58;8.75;;;9.40;99.90;;;;;;5057722;28;20317;-70
2023/10/26 01:51:32;;;;;;;17.40;9.48;;;9.40;99.90;;;;;;5057225;28;20483;-70
2023/10/26 01:53:58;;;;;;;22.17;10.48;;;9.40;99.90;;;;;;5035963;28;20588;-71
2023/10/26 01:56:24;;;;;;;21.43;9.87;;;9.40;99.90;;;;;;5058605;28;20128;-70
2023/10/26 01:58:49;;;;;;;22.17;11.20;;;9.40;99.90;;;;;;5052082;28;20043;-70
2023/10/26 02:01:15;;;;;;;18.90;11.07;;;9.40;99.90;;;;;;5049183;28;20041;-70
2023/10/26 02:03:43;;;;;;;22.17;11.17;;;9.40;99.90;;;;;;5049684;28;20036;-70
2023/10/26 02:06:11;;;;;;;22.30;11.23;;;9.40;99.90;;;;;;5036636;28;20425;-71
2023/10/26 02:08:37;;;;;;;25.13;12.03;;;9.50;99.90;;;;;;5061737;28;20186;-70
2023/10/26 02:11:05;;;;;;;23.33;12.33;;;9.50;99.90;;;;;;5055779;28;20076;-71
2023/10/26 02:13:31;;;;;;;22.13;11.32;;;9.50;99.90;;;;;;5047606;28;20045;-70
2023/10/26 02:16:01;;;;;;;18.40;10.33;;;9.40;99.90;;;;;;5043001;28;20139;-70
2023/10/26 02:18:27;;;;;;;22.75;11.57;;;9.40;99.90;;;;;;5051489;28;20044;-70
2023/10/26 02:20:53;;;;;;;25.17;12.00;;;9.50;99.90;;;;;;5049020;28;20080;-70
2023/10/26 02:23:18;;;;;;;20.17;11.40;;;9.50;99.90;;;;;;5056721;28;20052;-70
2023/10/26 02:25:44;;;;;;;24.73;11.23;;;9.50;99.90;;;;;;5054434;28;20786;-70
2023/10/26 02:28:15;;;;;;;26.23;12.17;;;9.50;99.90;;;;;;5056230;28;20044;-70
2023/10/26 02:30:44;;;;;;;24.30;12.30;;;9.50;99.90;;;;;;5051495;28;20068;-70
2023/10/26 02:33:12;;;;;;;26.92;13.23;;;9.50;99.90;;;;;;5045131;28;20045;-70
2023/10/26 02:35:39;;;;;;;30.58;13.30;;;9.50;99.90;;;;;;5038953;28;20569;-70
2023/10/26 02:38:05;;;;;;;25.67;12.23;;;9.50;99.90;;;;;;5051560;28;20048;-70
2023/10/26 02:40:30;;;;;;;24.53;13.23;;;9.50;99.90;;;;;;5053409;28;20555;-70
2023/10/26 02:42:56;;;;;;;26.43;13.63;;;9.50;99.90;;;;;;5056606;28;20258;-70
2023/10/26 02:45:25;;;;;;;24.70;13.53;;;9.50;99.90;;;;;;5049242;28;20044;-71
2023/10/26 02:47:50;;;;;;;30.10;14.40;;;9.50;99.90;;;;;;5054898;28;20059;-71
2023/10/26 02:50:16;;;;;;;27.70;13.77;;;9.50;99.90;;;;;;5048397;28;20071;-71
2023/10/26 02:52:42;;;;;;;23.20;13.00;;;9.50;99.90;;;;;;5053920;28;20056;-70
2023/10/26 02:55:10;;;;;;;26.40;13.02;;;9.50;99.90;;;;;;5045454;28;20098;-70
2023/10/26 02:57:36;;;;;;;25.55;13.77;;;9.50;99.90;;;;;;5051829;28;20053;-71
2023/10/26 03:00:05;;;;;;;26.90;13.77;;;9.50;99.90;;;;;;5052706;28;20068;-70
2023/10/26 03:02:31;;;;;;;23.80;12.50;;;9.50;99.90;;;;;;5053191;28;20041;-70
2023/10/26 03:04:57;;;;;;;27.30;13.57;;;9.50;99.90;;;;;;5057056;28;20542;-70
2023/10/26 03:07:23;;;;;;;24.77;12.73;;;9.50;99.90;;;;;;5051497;28;20102;-70
2023/10/26 03:09:50;;;;;;;26.50;15.00;;;9.50;99.90;;;;;;5053902;28;20080;-70
2023/10/26 03:12:16;;;;;;;26.08;14.18;;;9.50;99.90;;;;;;5055304;28;20044;-70
2023/10/26 03:14:41;;;;;;;30.00;13.13;;;9.50;99.90;;;;;;5044134;28;20044;-70
2023/10/26 03:17:07;;;;;;;25.10;12.27;;;9.50;99.90;;;;;;5049227;28;20049;-70
2023/10/26 03:19:33;;;;;;;24.73;13.60;;;9.50;99.90;;;;;;5047010;28;20819;-70
2023/10/26 03:22:01;;;;;;;25.60;13.52;;;9.60;99.90;;;;;;5050991;28;20205;-70
2023/10/26 03:24:35;;;;;;;23.25;13.35;;;9.50;99.90;;;;;;5047954;28;20045;-70
2023/10/26 03:27:01;;;;;;;23.90;13.43;;;9.50;99.90;;;;;;5049990;28;20064;-70
2023/10/26 03:29:29;;;;;;;22.85;12.70;;;9.50;99.90;;;;;;5043527;28;20033;-70
2023/10/26 03:31:58;;;;;;;29.73;14.70;;;9.50;99.90;;;;;;5048286;28;20071;-70
2023/10/26 03:34:30;;;;;;;24.15;13.23;;;9.50;99.90;;;;;;5047280;28;20458;-70
2023/10/26 03:36:58;;;;;;;27.00;14.57;;;9.50;99.90;;;;;;5034231;28;20485;-70
2023/10/26 03:39:24;;;;;;;23.63;12.98;;;9.50;99.90;;;;;;5051167;28;20048;-70
2023/10/26 03:41:49;;;;;;;26.97;14.50;;;9.50;99.90;;;;;;5056092;28;20199;-70
2023/10/26 03:44:15;;;;;;;28.17;14.07;;;9.50;99.90;;;;;;5049302;28;20094;-70
2023/10/26 03:46:41;;;;;;;26.50;14.27;;;9.50;99.90;;;;;;5052205;28;20037;-70
2023/10/26 03:49:09;;;;;;;29.05;14.60;;;9.50;99.90;;;;;;5053568;28;20049;-70
2023/10/26 03:51:34;;;;;;;30.97;15.63;;;9.50;99.90;;;;;;5047795;28;20043;-70
2023/10/26 03:54:00;;;;;;;25.43;14.43;;;9.50;99.90;;;;;;5055319;28;20037;-70
2023/10/26 03:56:26;;;;;;;41.92;15.32;;;9.50;99.90;;;;;;5049646;28;20040;-70
2023/10/26 03:58:54;;;;;;;29.73;13.30;;;9.50;99.90;;;;;;5057112;28;20514;-70
2023/10/26 04:01:23;;;;;;;29.40;14.32;;;9.50;99.90;;;;;;5048718;28;20041;-70
2023/10/26 04:03:48;;;;;;;29.30;14.93;;;9.50;99.90;;;;;;5053988;28;20579;-70
2023/10/26 04:06:14;;;;;;;33.67;14.23;;;9.50;99.90;;;;;;5048147;28;20252;-70
2023/10/26 04:08:39;;;;;;;35.53;14.50;;;9.40;99.90;;;;;;5055919;28;20037;-70
2023/10/26 04:11:05;;;;;;;24.47;14.27;;;9.50;99.90;;;;;;5056949;28;20107;-70
2023/10/26 04:13:31;;;;;;;28.20;14.87;;;9.40;99.90;;;;;;5053432;28;20033;-70
2023/10/26 04:16:01;;;;;;;33.07;14.57;;;9.40;99.90;;;;;;5057714;28;20037;-70
2023/10/26 04:18:27;;;;;;;28.88;14.88;;;9.40;99.90;;;;;;5038569;28;20045;-70
2023/10/26 04:20:53;;;;;;;28.45;13.88;;;9.40;99.90;;;;;;5051830;28;20045;-70
2023/10/26 04:23:18;;;;;;;70.40;14.27;;;9.40;99.90;;;;;;5050798;28;20079;-70
2023/10/26 04:25:44;;;;;;;43.40;13.17;;;9.40;99.90;;;;;;5048716;28;20036;-70
2023/10/26 04:28:09;;;;;;;45.33;14.30;;;9.40;99.90;;;;;;5058771;28;20083;-70
2023/10/26 04:30:37;;;;;;;81.60;15.37;;;9.30;99.90;;;;;;5049164;28;20116;-71
2023/10/26 04:33:03;;;;;;;76.35;13.93;;;9.30;99.90;;;;;;5051985;28;20040;-70
2023/10/26 04:35:28;;;;;;;59.10;15.13;;;9.30;99.90;;;;;;5052698;28;20032;-70
2023/10/26 04:37:54;;;;;;;45.03;13.30;;;9.30;99.90;;;;;;5062713;28;20112;-70
2023/10/26 04:40:20;;;;;;;48.67;14.33;;;9.30;99.90;;;;;;5051807;28;20048;-71
2023/10/26 04:42:45;;;;;;;56.40;13.50;;;9.30;99.90;;;;;;5053203;28;20048;-70
2023/10/26 04:45:11;;;;;;;94.97;15.77;;;9.20;99.90;;;;;;5054733;28;20046;-70
2023/10/26 04:47:37;;;;;;;58.17;12.87;;;9.20;99.90;;;;;;5048137;28;20049;-70
2023/10/26 04:50:03;;;;;;;64.68;14.05;;;9.20;99.90;;;;;;5056042;28;20436;-70
2023/10/26 04:52:29;;;;;;;59.60;13.68;;;9.20;99.90;;;;;;5049631;28;20512;-70
2023/10/26 04:54:55;;;;;;;32.97;10.47;;;9.20;99.90;;;;;;5056801;28;20043;-70
2023/10/26 04:57:20;;;;;;;53.53;12.47;;;9.20;99.90;;;;;;5048484;28;20039;-70
2023/10/26 04:59:46;;;;;;;55.13;13.53;;;9.20;99.90;;;;;;5046089;28;20036;-70
2023/10/26 05:02:11;;;;;;;62.60;13.00;;;9.10;99.90;;;;;;5054220;28;20036;-70
2023/10/26 05:04:37;;;;;;;73.10;14.27;;;9.20;99.90;;;;;;5052906;28;20515;-70
2023/10/26 05:07:05;;;;;;;50.43;12.73;;;9.10;99.90;;;;;;5052884;28;20271;-70
2023/10/26 05:09:31;;;;;;;67.55;13.23;;;9.10;99.90;;;;;;5051264;28;20082;-70
2023/10/26 05:11:57;;;;;;;44.97;11.43;;;9.10;99.90;;;;;;5050849;28;20045;-70
2023/10/26 05:14:22;;;;;;;35.87;12.37;;;9.00;99.90;;;;;;5047700;28;20051;-71
2023/10/26 05:16:48;;;;;;;37.87;11.90;;;9.00;99.90;;;;;;5048449;28;20451;-70
2023/10/26 05:19:14;;;;;;;53.25;11.50;;;9.00;99.90;;;;;;5051825;28;20485;-70
2023/10/26 05:21:39;;;;;;;28.80;11.50;;;9.00;99.90;;;;;;5053297;28;20060;-71
2023/10/26 05:24:08;;;;;;;53.00;13.00;;;8.90;99.90;;;;;;5036506;28;20417;-70
2023/10/26 05:26:34;;;;;;;35.35;10.90;;;9.00;99.90;;;;;;5052967;28;20468;-70
2023/10/26 05:29:02;;;;;;;29.37;11.13;;;8.90;99.90;;;;;;5046303;28;20032;-70
2023/10/26 05:31:28;;;;;;;40.55;10.82;;;8.90;99.90;;;;;;5048116;28;20040;-70
2023/10/26 05:33:54;;;;;;;34.43;11.17;;;8.90;99.90;;;;;;5051498;28;20048;-70
2023/10/26 05:36:19;;;;;;;49.83;11.50;;;8.80;99.90;;;;;;5054749;28;20132;-70
2023/10/26 05:38:45;;;;;;;24.67;9.13;;;8.80;99.90;;;;;;5047306;28;20051;-70
2023/10/26 05:41:13;;;;;;;51.20;11.37;;;8.70;99.90;;;;;;5048809;28;20353;-70
2023/10/26 05:43:38;;;;;;;33.78;10.73;;;8.70;99.90;;;;;;5055943;28;20044;-70
2023/10/26 05:46:04;;;;;;;31.63;9.37;;;8.70;99.90;;;;;;5053283;28;20406;-73
2023/10/26 05:48:31;;;;;;;28.60;10.27;;;8.70;99.90;;;;;;5056329;28;20525;-72
2023/10/26 05:51:00;;;;;;;30.20;10.65;;;8.70;99.90;;;;;;5053986;28;20045;-72
2023/10/26 05:53:29;;;;;;;17.25;9.57;;;8.60;99.90;;;;;;5048287;28;20045;-74
2023/10/26 05:56:00;;;;;;;32.58;10.13;;;8.60;99.90;;;;;;5046612;28;20663;-71
2023/10/26 05:58:26;;;;;;;35.58;9.68;;;8.60;99.90;;;;;;5048758;28;20592;-70
2023/10/26 06:00:52;;;;;;;34.88;9.73;;;8.60;99.90;;;;;;5046960;28;20072;-72
2023/10/26 06:03:17;;;;;;;23.30;9.35;;;8.50;99.90;;;;;;5032641;28;20102;-73
2023/10/26 06:05:43;;;;;;;24.03;7.67;;;8.50;99.90;;;;;;5054416;28;20189;-73
2023/10/26 06:08:11;;;;;;;26.77;9.53;;;8.50;99.90;;;;;;5054619;28;20060;-71
2023/10/26 06:10:40;;;;;;;27.98;9.77;;;8.40;99.90;;;;;;5050429;28;20044;-70
2023/10/26 06:13:10;;;;;;;31.80;8.90;;;8.40;99.90;;;;;;5051685;28;20033;-70
2023/10/26 06:15:36;;;;;;;26.00;9.70;;;8.40;99.90;;;;;;5043946;28;20045;-70
2023/10/26 06:18:02;;;;;;;19.38;8.50;;;8.40;99.90;;;;;;5044248;28;20083;-70
2023/10/26 06:20:33;;;;;;;32.92;9.43;;;8.40;99.90;;;;;;5046062;28;20075;-70
2023/10/26 06:23:02;;;;;;;21.05;9.52;;;8.40;99.90;;;;;;5047277;28;20066;-70
2023/10/26 06:25:28;;;;;;;20.10;8.63;;;8.30;99.90;;;;;;5037557;28;20053;-71
2023/10/26 06:27:57;;;;;;;;;;;8.30;99.90;;;;;;5044846;28;20057;-71
2023/10/26 06:30:26;;;;;;;25.98;7.93;;;8.30;99.90;;;;;;5043469;28;20142;-70
2023/10/26 06:32:52;;;;;;;26.63;9.45;;;8.20;99.90;;;;;;5048626;28;20037;-70
2023/10/26 06:35:23;;;;;;;15.73;8.35;;;8.30;99.90;;;;;;5045352;28;20417;-70
2023/10/26 06:37:51;;;;;;;17.23;9.32;;;8.20;99.90;;;;;;5047582;28;20045;-71
2023/10/26 06:40:17;;;;;;;18.50;8.30;;;8.20;99.90;;;;;;5050276;28;20098;-71
2023/10/26 06:42:42;;;;;;;22.90;10.27;;;8.20;99.90;;;;;;5056403;28;20392;-70
2023/10/26 06:45:08;;;;;;;23.17;9.93;;;8.20;99.90;;;;;;5051687;28;20315;-71
2023/10/26 06:47:34;;;;;;;23.88;9.05;;;8.20;99.90;;;;;;5058455;28;20342;-71
2023/10/26 06:50:00;;;;;;;15.83;9.50;;;8.20;99.90;;;;;;5050777;28;20136;-71
2023/10/26 06:52:25;;;;;;;26.93;10.80;;;8.20;99.90;;;;;;5050304;28;20558;-70
2023/10/26 06:54:53;;;;;;;17.92;9.75;;;8.30;99.90;;;;;;5050293;28;20086;-71
2023/10/26 06:57:26;;;;;;;23.23;11.23;;;8.20;99.90;;;;;;5047181;28;20076;-71
2023/10/26 06:59:53;;;;;;;20.23;10.02;;;8.30;99.90;;;;;;5036622;28;20079;-70
2023/10/26 07:02:19;;;;;;;19.15;9.55;;;8.30;99.90;;;;;;5049069;28;20041;-70
2023/10/26 07:04:45;;;;;;;20.37;9.90;;;8.30;99.90;;;;;;5046423;28;20032;-70
2023/10/26 07:07:10;;;;;;;22.73;9.80;;;8.30;99.90;;;;;;5047666;28;20274;-70
2023/10/26 07:09:37;;;;;;;18.10;8.57;;;8.30;99.90;;;;;;5047974;28;21044;-70
2023/10/26 07:12:02;;;;;;;26.48;11.32;;;8.30;99.90;;;;;;5051978;28;20115;-70
2023/10/26 07:14:29;;;;;;;25.17;10.80;;;8.30;99.90;;;;;;5044998;28;20082;-71
2023/10/26 07:16:54;;;;;;;23.15;10.40;;;8.30;99.90;;;;;;5040718;28;20359;-70
2023/10/26 07:19:20;;;;;;;20.13;9.80;;;8.30;99.90;;;;;;5047017;28;20052;-70
2023/10/26 07:21:46;;;;;;;23.67;10.40;;;8.30;99.90;;;;;;5051115;28;20036;-70
2023/10/26 07:24:11;;;;;;;19.20;9.67;;;8.30;99.90;;;;;;5034499;28;20081;-70
2023/10/26 07:26:37;;;;;;;17.42;9.55;;;8.30;99.90;;;;;;5044682;28;20083;-70
2023/10/26 07:29:03;;;;;;;17.73;9.23;;;8.30;99.90;;;;;;5043184;28;20049;-71
2023/10/26 07:31:28;;;;;;;23.93;9.77;;;8.30;99.90;;;;;;5044837;28;20044;-70
2023/10/26 07:33:54;;;;;;;27.13;8.57;;;8.40;99.90;;;;;;5052806;28;20043;-70
2023/10/26 07:36:20;;;;;;;20.90;8.47;;;8.40;99.90;;;;;;5043702;28;20033;-71
2023/10/26 07:38:46;;;;;;;32.43;10.33;;;8.50;99.90;;;;;;5053731;28;21072;-71
2023/10/26 07:41:11;;;;;;;27.60;9.23;;;8.50;99.90;;;;;;5046095;28;20041;-70
2023/10/26 07:43:37;;;;;;;32.77;8.73;;;8.50;99.90;;;;;;5052912;28;20409;-74
2023/10/26 07:46:03;;;;;;;34.78;8.73;;;8.60;99.90;;;;;;5049454;28;20076;-70
2023/10/26 07:48:30;;;;;;;22.35;9.23;;;8.50;99.90;;;;;;5061274;28;20090;-71
2023/10/26 07:50:56;;;;;;;30.73;9.15;;;8.60;99.90;;;;;;5051107;28;20055;-71
2023/10/26 07:53:23;;;;;;;26.55;9.32;;;8.60;99.90;;;;;;5033625;28;20509;-71
2023/10/26 07:55:48;;;;;;;28.52;9.57;;;8.60;99.90;;;;;;5048719;28;20468;-71
2023/10/26 07:58:14;;;;;;;31.60;9.63;;;8.70;99.90;;;;;;5044689;28;20554;-71
2023/10/26 08:00:40;;;;;;;36.00;10.80;;;8.70;99.90;;;;;;5048905;28;20290;-71
2023/10/26 08:03:05;;;;;;;25.67;9.13;;;8.70;99.90;;;;;;5062170;28;20041;-71
2023/10/26 08:05:31;;;;;;;32.93;9.37;;;8.80;99.90;;;;;;5049432;28;20045;-71
2023/10/26 08:07:56;;;;;;;24.97;9.97;;;8.90;99.90;;;;;;5058405;28;20047;-70
2023/10/26 08:10:24;;;;;;;29.20;11.37;;;8.90;99.90;;;;;;5049194;28;20045;-71
2023/10/26 08:12:52;;;;;;;22.52;10.20;;;8.90;99.90;;;;;;5053419;28;20044;-70
2023/10/26 08:15:20;;;;;;;24.20;10.95;;;9.00;99.90;;;;;;5048524;28;20048;-70
2023/10/26 08:17:46;;;;;;;23.98;11.20;;;9.00;99.90;;;;;;5050557;28;20124;-70
2023/10/26 08:20:12;;;;;;;29.08;11.45;;;9.00;99.90;;;;;;5042901;28;20037;-70
2023/10/26 08:22:38;;;;;;;28.57;11.93;;;9.10;99.90;;;;;;5042673;28;20056;-71
2023/10/26 08:25:04;;;;;;;23.10;11.93;;;9.20;99.90;;;;;;5052713;28;20401;-71
2023/10/26 08:27:31;;;;;;;26.55;11.95;;;9.20;99.90;;;;;;5059087;28;20397;-73
2023/10/26 08:29:57;;;;;;;24.75;12.25;;;9.30;99.90;;;;;;5052178;28;20059;-73
2023/10/26 08:32:22;;;;;;;26.92;12.95;;;9.30;99.90;;;;;;5050680;28;20032;-71
2023/10/26 08:34:48;;;;;;;24.57;12.63;;;9.40;99.90;;;;;;5054344;28;20101;-72
2023/10/26 08:37:15;;;;;;;26.15;13.82;;;9.40;99.90;;;;;;5046543;28;20057;-71
2023/10/26 08:39:41;;;;;;;32.42;13.43;;;9.50;99.90;;;;;;5046598;28;20049;-71
2023/10/26 08:42:08;;;;;;;35.47;14.03;;;9.50;99.90;;;;;;5054050;28;20135;-71
2023/10/26 08:44:34;;;;;;;32.42;14.13;;;9.60;99.90;;;;;;5054478;28;20797;-74
2023/10/26 08:47:02;;;;;;;34.07;14.00;;;9.60;99.90;;;;;;5051450;28;20072;-73
2023/10/26 08:49:30;;;;;;;32.70;13.70;;;9.60;99.90;;;;;;5032307;28;20045;-74
2023/10/26 08:51:56;;;;;;;54.95;15.15;;;9.70;99.90;;;;;;5057880;28;20112;-72
2023/10/26 08:54:22;;;;;;;28.40;14.02;;;9.70;99.90;;;;;;5036483;28;20041;-71
2023/10/26 08:56:47;;;;;;;34.97;14.80;;;9.70;99.90;;;;;;5055987;28;20489;-72
2023/10/26 08:59:14;;;;;;;38.13;14.27;;;9.80;99.90;;;;;;5054560;28;20437;-70
2023/10/26 09:01:41;;;;;;;34.33;13.80;;;9.70;99.90;;;;;;5053985;28;20037;-71
2023/10/26 09:04:10;;;;;;;37.08;14.85;;;9.80;99.90;;;;;;5049943;28;20200;-71
2023/10/26 09:06:46;;;;;;;35.97;14.95;;;9.80;99.90;;;;;;5051501;28;20037;-71
2023/10/26 09:09:13;;;;;;;32.67;14.00;;;9.80;99.90;;;;;;5032684;28;20119;-71
2023/10/26 09:11:38;;;;;;;;;;;9.80;99.90;;;;;;5046459;28;20107;-71
2023/10/26 09:14:19;;;;;;;34.33;15.80;;;9.90;99.90;;;;;;5046474;28;19925;-71
2023/10/26 09:16:47;;;;;;;33.55;14.32;;;9.90;99.90;;;;;;5052321;28;20045;-71
2023/10/26 09:19:14;;;;;;;34.65;15.30;;;10.00;99.90;;;;;;5053187;28;20040;-72
2023/10/26 09:21:57;;;;;;;36.63;15.45;;;10.00;99.90;;;;;;5047415;28;20055;-71
2023/10/26 09:24:27;;;;;;;33.60;14.60;;;10.00;99.90;;;;;;5047815;28;20098;-72
2023/10/26 09:26:59;;;;;;;28.77;14.23;;;10.10;99.90;;;;;;5046460;28;20131;-71
2023/10/26 09:29:41;;;;;;;31.55;15.50;;;10.00;99.90;;;;;;5049533;28;20094;-72
2023/10/26 09:32:10;;;;;;;31.10;14.38;;;10.00;99.90;;;;;;5047169;28;20400;-71
2023/10/26 09:34:42;;;;;;;29.45;13.10;;;10.00;99.90;;;;;;5045413;28;20135;-72
2023/10/26 09:37:10;;;;;;;35.45;13.80;;;10.10;99.90;;;;;;5046999;28;20464;-71
2023/10/26 09:39:38;;;;;;;32.67;14.63;;;10.10;99.90;;;;;;5042934;28;20076;-72
2023/10/26 09:42:09;;;;;;;30.67;14.48;;;10.10;99.90;;;;;;5050219;28;20047;-72
2023/10/26 09:44:36;;;;;;;31.13;14.85;;;10.10;99.90;;;;;;5055898;28;20052;-72
2023/10/26 09:47:02;;;;;;;33.30;16.00;;;10.10;99.90;;;;;;5052340;28;20380;-72
2023/10/26 09:49:28;;;;;;;30.33;15.32;;;10.20;99.90;;;;;;5050412;28;20053;-72
2023/10/26 09:51:54;;;;;;;29.70;14.25;;;10.20;99.90;;;;;;5058153;28;20039;-71
2023/10/26 09:54:28;;;;;;;29.45;14.27;;;10.20;99.90;;;;;;5056413;28;20052;-71
2023/10/26 09:57:26;;;;;;;31.00;14.25;;;10.20;99.90;;;;;;5049736;28;20045;-71
2023/10/26 09:59:53;;;;;;;28.65;13.38;;;10.20;99.90;;;;;;5054737;28;20166;-72
2023/10/26 10:02:19;;;;;;;27.92;13.90;;;10.20;99.90;;;;;;5046956;28;20406;-72
2023/10/26 10:04:46;;;;;;;31.25;14.10;;;10.20;99.90;;;;;;5043113;28;20132;-72
2023/10/26 10:07:42;;;;;;;28.83;14.13;;;10.20;99.90;;;;;;5042527;28;20521;-72
2023/10/26 10:10:10;;;;;;;29.63;13.77;;;10.30;99.90;;;;;;5050478;28;20144;-72
2023/10/26 10:12:38;;;;;;;31.23;15.03;;;10.30;99.90;;;;;;5053090;28;20048;-72
2023/10/26 10:15:09;;;;;;;28.52;13.35;;;10.30;99.90;;;;;;5055255;28;20091;-72
2023/10/26 10:17:58;;;;;;;26.58;13.23;;;10.40;99.90;;;;;;5047552;28;20053;-72
2023/10/26 10:20:23;;;;;;;28.90;13.68;;;10.40;99.90;;;;;;5046519;28;20114;-72
2023/10/26 10:22:58;;;;;;;29.63;13.20;;;10.40;99.90;;;;;;5052163;28;20485;-72
2023/10/26 10:25:49;;;;;;;28.83;13.27;;;10.40;99.90;;;;;;5047357;28;20039;-72
2023/10/26 10:28:16;;;;;;;29.88;13.60;;;10.50;99.90;;;;;;5050575;28;20412;-72
2023/10/26 10:31:09;;;;;;;;;;;10.50;99.90;;;;;;5047107;28;20036;-72
2023/10/26 10:33:38;;;;;;;25.67;13.48;;;10.60;99.90;;;;;;5051709;28;19940;-72
2023/10/26 10:36:05;;;;;;;29.55;13.30;;;10.70;99.90;;;;;;5054912;28;20462;-72
2023/10/26 10:38:34;;;;;;;27.08;13.77;;;10.60;99.90;;;;;;5053254;28;20033;-72
2023/10/26 10:40:59;;;;;;;24.42;11.88;;;10.70;99.90;;;;;;5060387;28;20032;-72
2023/10/26 10:43:32;;;;;;;24.33;12.63;;;10.70;99.90;;;;;;5047346;28;20070;-72
2023/10/26 10:46:12;;;;;;;20.70;10.70;;;10.70;99.90;;;;;;5048638;28;20048;-72
2023/10/26 10:49:01;;;;;;;26.83;12.10;;;10.80;99.90;;;;;;5057901;28;20059;-73
2023/10/26 10:51:38;;;;;;;24.67;12.38;;;10.80;99.90;;;;;;5044734;28;20071;-73
2023/10/26 10:54:05;;;;;;;22.83;11.70;;;10.80;99.90;;;;;;5048277;28;20047;-72
2023/10/26 10:56:48;;;;;;;21.98;11.55;;;10.80;99.90;;;;;;5042512;28;20048;-72
2023/10/26 10:59:20;;;;;;;24.42;11.73;;;10.90;99.90;;;;;;5048606;28;20025;-73
2023/10/26 11:01:46;;;;;;;25.10;11.98;;;10.90;99.90;;;;;;5050568;28;20041;-72
2023/10/26 11:04:15;;;;;;;23.30;12.20;;;10.90;99.90;;;;;;5046684;28;20588;-72
2023/10/26 11:06:46;;;;;;;23.52;11.20;;;10.90;99.90;;;;;;5046848;28;20059;-72
2023/10/26 11:09:29;;;;;;;21.33;11.55;;;11.00;99.90;;;;;;5042857;28;20111;-72
2023/10/26 11:11:55;;;;;;;21.30;11.02;;;11.00;99.90;;;;;;5050121;28;20523;-73
2023/10/26 11:14:22;;;;;;;23.42;11.48;;;11.00;99.90;;;;;;5046694;28;20073;-72
2023/10/26 11:16:51;;;;;;;19.42;10.55;;;11.00;99.90;;;;;;5047806;28;20497;-73
2023/10/26 11:19:17;;;;;;;21.77;10.75;;;11.00;99.90;;;;;;5047766;28;20052;-73
2023/10/26 11:21:43;;;;;;;21.88;11.13;;;11.00;99.90;;;;;;5054142;28;20036;-73
2023/10/26 11:24:08;;;;;;;24.85;10.88;;;11.00;99.90;;;;;;5049085;28;20044;-73
2023/10/26 11:26:34;;;;;;;21.02;10.68;;;11.00;99.90;;;;;;5044665;28;20059;-72
2023/10/26 11:29:03;;;;;;;24.67;11.50;;;11.00;99.90;;;;;;5038605;28;20066;-73
2023/10/26 11:31:42;;;;;;;21.58;11.57;;;11.10;99.90;;;;;;5041628;28;20044;-72
2023/10/26 11:34:09;;;;;;;23.23;11.57;;;11.00;99.90;;;;;;5046839;28;20087;-72
2023/10/26 11:36:38;;;;;;;21.55;11.52;;;11.00;99.90;;;;;;5044172;28;20045;-72
2023/10/26 11:39:05;;;;;;;20.85;11.23;;;11.10;99.90;;;;;;5042669;28;20416;-72
2023/10/26 11:41:33;;;;;;;21.10;12.07;;;11.10;99.90;;;;;;5040441;28;20561;-72
2023/10/26 11:43:59;;;;;;;21.58;11.27;;;11.20;99.90;;;;;;5049135;28;20040;-72
2023/10/26 11:46:35;;;;;;;19.23;11.27;;;11.20;99.90;;;;;;5044074;28;20040;-72
2023/10/26 11:49:03;;;;;;;21.27;11.68;;;11.30;99.90;;;;;;5044073;28;20091;-72
2023/10/26 11:51:29;;;;;;;21.10;11.13;;;11.30;99.90;;;;;;5036416;28;20057;-73
2023/10/26 11:53:56;;;;;;;25.25;11.98;;;11.40;99.90;;;;;;5038557;28;20037;-73
2023/10/26 11:56:23;;;;;;;20.65;11.20;;;11.40;99.90;;;;;;5044710;28;20516;-72
2023/10/26 11:58:49;;;;;;;21.58;10.73;;;11.50;99.90;;;;;;5021917;28;20037;-72
2023/10/26 12:01:14;;;;;;;19.27;10.53;;;11.60;99.90;;;;;;5042615;28;20551;-72
2023/10/26 12:03:44;;;;;;;20.23;10.83;;;11.70;99.90;;;;;;5041529;28;20689;-72
2023/10/26 12:06:11;;;;;;;18.55;10.77;;;11.80;99.90;;;;;;5040479;28;20376;-72
2023/10/26 12:08:37;;;;;;;18.83;10.30;;;11.90;99.90;;;;;;5046535;28;20056;-72
2023/10/26 12:11:04;;;;;;;19.27;10.82;;;11.90;99.90;;;;;;5041704;28;20153;-72
2023/10/26 12:13:32;;;;;;;20.02;10.35;;;11.90;99.90;;;;;;5045023;28;20295;-72
2023/10/26 12:15:57;;;;;;;20.65;10.30;;;12.00;99.90;;;;;;5056161;28;20042;-73
2023/10/26 12:18:23;;;;;;;20.60;11.05;;;12.00;99.90;;;;;;5054607;28;20307;-73
2023/10/26 12:20:49;;;;;;;19.50;10.40;;;12.00;99.90;;;;;;5048999;28;20041;-72
2023/10/26 12:23:14;;;;;;;20.97;10.73;;;12.10;99.90;;;;;;5045312;28;20053;-73
2023/10/26 12:25:40;;;;;;;20.17;9.47;;;12.20;99.90;;;;;;5044051;28;20293;-72
2023/10/26 12:28:05;;;;;;;21.27;10.73;;;12.40;99.90;;;;;;5048394;28;20032;-72
2023/10/26 12:30:31;;;;;;;19.07;9.93;;;12.40;99.90;;;;;;5043443;28;20294;-72
2023/10/26 12:32:57;;;;;;;23.35;11.60;;;12.50;99.90;;;;;;5038870;28;22264;-73
2023/10/26 12:35:23;;;;;;;19.65;10.13;;;12.60;99.90;;;;;;5052573;28;20056;-72
2023/10/26 12:37:49;;;;;;;18.58;10.02;;;12.50;99.90;;;;;;5046683;28;20049;-73
2023/10/26 12:40:15;;;;;;;22.13;9.82;;;12.50;99.90;;;;;;5051902;28;20501;-73